createdAt,value
2022-10-17T18:23:35.710Z,22.62
2022-10-17T18:24:39.817Z,22.65
2022-10-17T18:25:43.947Z,22.65
2022-10-17T18:26:48.068Z,22.65
2022-10-17T18:27:52.152Z,22.66
2022-10-17T18:28:56.256Z,22.65
2022-10-17T18:30:00.358Z,22.65
2022-10-17T18:31:04.463Z,22.67
2022-10-17T18:32:08.627Z,22.59
2022-10-17T18:33:12.717Z,22.66
2022-10-17T18:34:16.861Z,22.63
2022-10-17T18:35:21.005Z,22.67
2022-10-17T18:36:25.118Z,22.71
2022-10-17T18:37:29.308Z,22.8
2022-10-17T18:38:33.919Z,22.68
2022-10-17T18:39:38.030Z,22.69
2022-10-17T18:40:43.390Z,22.65
2022-10-17T18:41:53.135Z,22.65
2022-10-17T18:42:57.259Z,22.6
2022-10-17T18:44:01.506Z,22.6
2022-10-17T18:45:06.473Z,22.6
2022-10-17T18:46:12.495Z,22.67
2022-10-17T18:47:19.029Z,22.68
2022-10-17T18:48:23.166Z,22.64
2022-10-17T18:49:27.473Z,22.68
2022-10-17T18:50:31.594Z,22.69
2022-10-17T18:51:35.734Z,22.68
2022-10-17T18:52:39.851Z,22.7
2022-10-17T18:53:44.002Z,22.68
2022-10-17T18:54:48.156Z,22.71
2022-10-17T18:55:52.261Z,22.7
2022-10-17T18:56:56.468Z,22.68
2022-10-17T18:58:00.603Z,22.67
2022-10-17T18:59:04.710Z,22.69
2022-10-17T19:00:08.807Z,22.71
2022-10-17T19:01:12.986Z,22.67
2022-10-17T19:02:17.316Z,22.71
2022-10-17T19:03:21.449Z,22.65
2022-10-17T19:04:25.637Z,22.66
2022-10-17T19:05:29.763Z,22.68
2022-10-17T19:06:34.277Z,22.7
2022-10-17T19:07:38.417Z,22.7
2022-10-17T19:08:42.522Z,22.73
2022-10-17T19:09:46.699Z,22.65
2022-10-17T19:10:50.805Z,22.69
2022-10-17T19:11:55.017Z,22.73
2022-10-17T19:12:59.120Z,22.7
2022-10-17T19:14:03.335Z,22.73
2022-10-17T19:15:07.523Z,22.7
2022-10-17T19:16:11.630Z,22.73
2022-10-17T19:17:15.745Z,22.72
2022-10-17T19:18:19.847Z,22.75
2022-10-17T19:19:23.940Z,22.75
2022-10-17T19:20:28.095Z,22.75
2022-10-17T19:21:32.628Z,22.73
2022-10-17T19:22:36.860Z,22.7
2022-10-17T19:23:40.991Z,22.73
2022-10-17T19:24:45.082Z,22.76
2022-10-17T19:25:49.194Z,22.78
2022-10-17T19:26:53.305Z,22.76
2022-10-17T19:27:57.400Z,22.79
2022-10-17T19:29:01.563Z,22.85
2022-10-17T19:30:06.015Z,22.83
2022-10-17T19:31:12.969Z,22.83
2022-10-17T19:32:25.204Z,22.81
2022-10-17T19:33:33.117Z,22.85
2022-10-17T19:34:40.096Z,22.83
2022-10-17T19:35:44.740Z,22.85
2022-10-17T19:36:49.035Z,22.81
2022-10-17T19:37:53.154Z,22.86
2022-10-17T19:38:57.262Z,22.87
2022-10-17T19:40:04.110Z,22.86
2022-10-17T19:41:08.400Z,22.87
2022-10-17T19:42:12.536Z,22.9
2022-10-17T19:43:16.629Z,22.88
2022-10-17T19:44:20.743Z,22.87
2022-10-17T19:45:24.876Z,22.87
2022-10-17T19:46:28.990Z,22.92
2022-10-17T19:47:33.112Z,22.9
2022-10-17T19:48:37.201Z,22.84
2022-10-17T19:49:41.321Z,22.77
2022-10-17T19:50:52.462Z,22.77
2022-10-17T19:51:56.583Z,22.8
2022-10-17T19:53:00.940Z,22.81
2022-10-17T19:54:05.038Z,22.81
2022-10-17T19:55:09.160Z,22.9
2022-10-17T19:56:13.264Z,22.87
2022-10-17T19:57:17.436Z,22.83
2022-10-17T19:58:21.585Z,22.87
2022-10-17T19:59:25.790Z,22.85
2022-10-17T20:00:29.961Z,22.82
2022-10-17T20:01:34.391Z,22.8
2022-10-17T20:02:38.916Z,22.77
2022-10-17T20:03:43.013Z,22.76
2022-10-17T20:04:49.816Z,22.74
2022-10-17T20:06:23.951Z,22.71
2022-10-17T20:07:28.091Z,22.7
2022-10-17T20:08:32.323Z,22.65
2022-10-17T20:09:36.464Z,22.65
2022-10-17T20:10:40.582Z,22.67
2022-10-17T20:11:44.672Z,22.67
2022-10-17T20:12:49.056Z,22.65
2022-10-17T20:13:53.319Z,22.61
2022-10-17T20:14:57.419Z,22.64
2022-10-17T20:16:01.548Z,22.61
2022-10-17T20:17:05.663Z,22.63
2022-10-17T20:18:09.761Z,22.64
2022-10-17T20:19:13.887Z,22.61
2022-10-17T20:21:19.347Z,22.65
2022-10-17T20:22:23.458Z,22.64
2022-10-17T20:23:27.550Z,22.71
2022-10-17T20:24:31.880Z,22.74
2022-10-17T20:25:37.156Z,22.73
2022-10-17T20:26:41.275Z,22.74
2022-10-17T20:27:45.440Z,22.73
2022-10-17T20:28:49.817Z,22.71
2022-10-17T20:29:54.192Z,22.68
2022-10-17T20:30:58.343Z,22.7
2022-10-17T20:32:02.461Z,22.67
2022-10-17T20:33:06.635Z,22.72
2022-10-17T20:34:10.748Z,22.7
2022-10-17T20:35:14.892Z,22.75
2022-10-17T20:36:18.990Z,22.7
2022-10-17T20:37:23.111Z,22.65
2022-10-17T20:38:27.214Z,22.62
2022-10-17T20:39:31.323Z,22.66
2022-10-17T20:40:35.905Z,22.64
2022-10-17T20:41:40.126Z,22.67
2022-10-17T20:42:44.409Z,22.77
2022-10-17T20:43:48.553Z,22.72
2022-10-17T20:44:52.715Z,22.68
2022-10-17T20:46:03.664Z,22.64
2022-10-17T20:47:46.195Z,22.57
2022-10-17T20:48:56.043Z,22.61
2022-10-17T20:50:00.166Z,22.59
2022-10-17T20:51:04.295Z,22.6
2022-10-17T20:52:08.438Z,22.55
2022-10-17T20:54:46.989Z,22.52
2022-10-17T20:55:51.108Z,22.57
2022-10-17T20:56:55.275Z,22.53
2022-10-17T20:58:07.103Z,22.43
2022-10-17T20:59:11.225Z,22.54
2022-10-17T21:00:15.326Z,22.52
2022-10-17T21:01:19.515Z,22.52
2022-10-17T21:02:23.776Z,22.47
2022-10-17T21:03:27.869Z,22.49
2022-10-17T21:04:47.467Z,22.49
2022-10-17T21:05:51.630Z,22.49
2022-10-17T21:06:55.756Z,22.47
2022-10-17T21:07:59.857Z,22.49
2022-10-17T21:09:03.947Z,22.49
2022-10-17T21:10:23.932Z,22.48
2022-10-17T21:11:39.047Z,22.49
2022-10-17T21:12:53.775Z,22.51
2022-10-17T21:13:59.368Z,22.45
2022-10-17T21:15:03.469Z,22.49
2022-10-17T21:16:07.606Z,22.46
2022-10-17T21:17:11.724Z,22.49
2022-10-17T21:18:15.864Z,22.49
2022-10-17T21:19:19.956Z,22.48
2022-10-17T21:20:24.148Z,22.5
2022-10-17T21:21:28.272Z,22.48
2022-10-17T21:22:32.525Z,22.37
2022-10-17T21:23:36.932Z,22.47
2022-10-17T21:24:41.023Z,22.5
2022-10-17T21:25:45.142Z,22.45
2022-10-17T21:26:49.296Z,22.46
2022-10-17T21:27:53.454Z,22.48
2022-10-17T21:28:57.614Z,22.47
2022-10-17T21:30:02.011Z,22.49
2022-10-17T21:31:06.360Z,22.5
2022-10-17T21:32:14.494Z,22.49
2022-10-17T21:33:54.044Z,22.45
2022-10-17T21:34:58.189Z,22.44
2022-10-17T21:36:02.297Z,22.48
2022-10-17T21:37:06.448Z,22.48
2022-10-17T21:38:10.630Z,22.48
2022-10-17T21:39:14.745Z,22.44
2022-10-17T21:40:18.886Z,22.45
2022-10-17T21:41:22.984Z,22.45
2022-10-17T21:42:27.081Z,22.46
2022-10-17T21:43:32.069Z,22.47
2022-10-17T21:44:36.170Z,22.53
2022-10-17T21:45:40.289Z,22.47
2022-10-17T21:46:44.407Z,22.5
2022-10-17T21:48:11.515Z,22.48
2022-10-17T21:49:16.806Z,22.46
2022-10-17T21:50:20.918Z,22.41
2022-10-17T21:51:25.053Z,22.44
2022-10-17T21:52:29.375Z,22.42
2022-10-17T21:53:34.733Z,22.44
2022-10-17T21:54:38.863Z,22.43
2022-10-17T21:55:42.987Z,22.4
2022-10-17T21:56:47.111Z,22.43
2022-10-17T21:57:51.260Z,22.38
2022-10-17T21:58:55.368Z,22.41
2022-10-17T21:59:59.508Z,22.42
2022-10-17T22:01:03.619Z,22.38
2022-10-17T22:02:07.704Z,22.42
2022-10-17T22:03:11.819Z,22.38
2022-10-17T22:04:15.909Z,22.41
2022-10-17T22:05:20.137Z,22.35
2022-10-17T22:06:40.764Z,22.36
2022-10-17T22:07:45.167Z,22.38
2022-10-17T22:08:49.290Z,22.39
2022-10-17T22:09:53.410Z,22.36
2022-10-17T22:10:57.544Z,22.37
2022-10-17T22:12:01.690Z,22.34
2022-10-17T22:13:05.800Z,22.37
2022-10-17T22:14:09.933Z,22.37
2022-10-17T22:16:18.154Z,22.38
2022-10-17T22:17:22.277Z,22.35
2022-10-17T22:18:26.411Z,22.38
2022-10-17T22:19:30.523Z,22.38
2022-10-17T22:20:34.657Z,22.37
2022-10-17T22:21:38.801Z,22.36
2022-10-17T22:22:42.937Z,22.33
2022-10-17T22:23:47.047Z,22.35
2022-10-17T22:24:51.171Z,22.34
2022-10-17T22:25:55.279Z,22.33
2022-10-17T22:26:59.390Z,22.35
2022-10-17T22:28:03.500Z,22.31
2022-10-17T22:29:07.605Z,22.35
2022-10-17T22:30:11.768Z,22.36
2022-10-17T22:31:15.891Z,22.34
2022-10-17T22:32:21.670Z,22.31
2022-10-17T22:33:26.762Z,22.29
2022-10-17T22:34:30.913Z,22.3
2022-10-17T22:35:35.039Z,22.33
2022-10-17T22:36:39.168Z,22.32
2022-10-17T22:37:43.295Z,22.34
2022-10-17T22:38:47.450Z,22.29
2022-10-17T22:39:51.553Z,22.33
2022-10-17T22:40:55.680Z,22.33
2022-10-17T22:41:59.785Z,22.33
2022-10-17T22:43:03.897Z,22.29
2022-10-17T22:44:08.012Z,22.32
2022-10-17T22:45:12.147Z,22.32
2022-10-17T22:46:16.259Z,22.28
2022-10-17T22:47:20.380Z,22.32
2022-10-17T22:48:24.486Z,22.32
2022-10-17T22:49:28.627Z,22.27
2022-10-17T22:50:32.736Z,22.29
2022-10-17T22:51:36.832Z,22.27
2022-10-17T22:52:40.981Z,22.31
2022-10-17T22:53:45.101Z,22.3
2022-10-17T22:54:49.234Z,22.26
2022-10-17T22:55:53.335Z,22.3
2022-10-17T22:56:57.424Z,22.27
2022-10-17T22:58:01.514Z,22.3
2022-10-17T22:59:05.627Z,22.29
2022-10-17T23:00:09.720Z,22.29
2022-10-17T23:01:13.890Z,22.29
2022-10-17T23:02:18.268Z,22.28
2022-10-17T23:03:22.360Z,22.25
2022-10-17T23:04:26.484Z,22.28
2022-10-17T23:05:30.553Z,22.25
2022-10-17T23:06:34.672Z,22.28
2022-10-17T23:07:38.779Z,22.27
2022-10-17T23:08:42.892Z,22.24
2022-10-17T23:09:47.009Z,22.27
2022-10-17T23:10:51.156Z,22.27
2022-10-17T23:11:55.260Z,22.27
2022-10-17T23:12:59.473Z,22.26
2022-10-17T23:14:03.558Z,22.25
2022-10-17T23:15:07.689Z,22.26
2022-10-17T23:16:11.796Z,22.22
2022-10-17T23:17:15.913Z,22.26
2022-10-17T23:18:20.043Z,22.25
2022-10-17T23:19:24.404Z,22.25
2022-10-17T23:20:28.523Z,22.26
2022-10-17T23:21:32.644Z,22.27
2022-10-17T23:22:36.762Z,22.23
2022-10-17T23:23:40.881Z,22.26
2022-10-17T23:24:44.970Z,22.22
2022-10-17T23:25:49.124Z,22.26
2022-10-17T23:26:53.233Z,22.25
2022-10-17T23:27:57.343Z,22.25
2022-10-17T23:29:01.494Z,22.26
2022-10-17T23:30:05.778Z,22.21
2022-10-17T23:31:09.907Z,22.24
2022-10-17T23:32:14.042Z,22.24
2022-10-17T23:33:18.140Z,22.24
2022-10-17T23:34:22.237Z,22.24
2022-10-17T23:35:26.343Z,22.24
2022-10-17T23:37:35.602Z,22.24
2022-10-17T23:38:39.723Z,22.21
2022-10-17T23:39:43.862Z,22.2
2022-10-17T23:40:48.036Z,22.19
2022-10-17T23:41:52.129Z,22.19
2022-10-17T23:42:56.219Z,22.18
2022-10-17T23:44:00.318Z,22.22
2022-10-17T23:45:04.407Z,22.21
2022-10-17T23:46:08.521Z,22.21
2022-10-17T23:47:12.631Z,22.2
2022-10-17T23:48:16.755Z,22.2
2022-10-17T23:49:20.836Z,22.2
2022-10-17T23:50:24.925Z,22.16
2022-10-17T23:51:29.005Z,22.19
2022-10-17T23:52:33.118Z,22.19
2022-10-17T23:53:37.230Z,22.15
2022-10-17T23:55:45.493Z,22.18
2022-10-17T23:56:49.652Z,22.18
2022-10-17T23:57:53.772Z,22.17
2022-10-17T23:58:57.865Z,22.17
